createdAt,value
2018-06-17T00:00:08.560Z,8.77
2018-06-17T00:02:36.317Z,9.63
2018-06-17T00:05:04.203Z,8.80
2018-06-17T00:07:31.971Z,9.30
2018-06-17T00:09:59.896Z,8.30
2018-06-17T00:12:27.823Z,9.33
2018-06-17T00:14:55.571Z,9.17
2018-06-17T00:17:23.311Z,7.90
2018-06-17T00:19:51.301Z,9.10
2018-06-17T00:22:19.095Z,9.10
2018-06-17T00:24:46.817Z,7.53
2018-06-17T00:27:14.623Z,8.10
2018-06-17T00:29:42.442Z,7.33
2018-06-17T00:32:10.222Z,9.00
2018-06-17T00:34:38.380Z,8.33
2018-06-17T00:37:06.137Z,8.87
2018-06-17T00:39:33.882Z,7.90
2018-06-17T00:42:01.700Z,8.50
2018-06-17T00:44:29.564Z,7.80
2018-06-17T00:46:57.380Z,7.60
2018-06-17T00:49:25.604Z,6.63
2018-06-17T00:51:53.377Z,7.43
2018-06-17T00:54:21.249Z,7.00
2018-06-17T00:57:01.320Z,6.77
2018-06-17T00:59:29.083Z,7.60
2018-06-17T01:01:56.872Z,6.87
2018-06-17T01:04:24.568Z,7.53
2018-06-17T01:06:52.292Z,7.40
2018-06-17T01:09:20.085Z,6.97
2018-06-17T01:11:47.976Z,8.03
2018-06-17T01:14:15.780Z,8.00
2018-06-17T01:16:43.511Z,8.53
2018-06-17T01:19:11.419Z,7.93
2018-06-17T01:21:39.208Z,7.70
2018-06-17T01:24:06.972Z,7.33
2018-06-17T01:26:34.684Z,5.87
2018-06-17T01:29:02.410Z,7.43
2018-06-17T01:31:30.160Z,6.43
2018-06-17T01:33:57.892Z,7.40
2018-06-17T01:36:25.614Z,8.13
2018-06-17T01:38:53.385Z,7.57
2018-06-17T01:41:21.120Z,6.77
2018-06-17T01:43:48.856Z,7.30
2018-06-17T01:46:16.553Z,7.07
2018-06-17T01:48:44.258Z,7.30
2018-06-17T01:51:11.996Z,6.70
2018-06-17T01:53:39.740Z,6.73
2018-06-17T01:56:07.510Z,8.80
2018-06-17T01:58:35.244Z,7.60
2018-06-17T02:01:03.004Z,7.43
2018-06-17T02:03:36.576Z,7.80
2018-06-17T02:06:10.144Z,7.10
2018-06-17T02:08:43.393Z,8.57
2018-06-17T02:11:16.926Z,8.67
2018-06-17T02:13:44.897Z,6.80
2018-06-17T02:16:12.887Z,7.47
2018-06-17T02:18:40.790Z,7.00
2018-06-17T02:21:08.694Z,8.57
2018-06-17T02:23:36.557Z,8.20
2018-06-17T02:26:04.591Z,7.37
2018-06-17T02:28:32.844Z,7.87
2018-06-17T02:31:00.770Z,8.00
2018-06-17T02:33:28.581Z,6.93
2018-06-17T02:35:56.336Z,7.00
2018-06-17T02:38:24.052Z,7.67
2018-06-17T02:40:51.796Z,7.60
2018-06-17T02:43:19.515Z,7.17
2018-06-17T02:45:52.676Z,7.13
2018-06-17T02:48:25.834Z,7.00
2018-06-17T02:50:59.368Z,6.83
2018-06-17T02:53:32.764Z,7.13
2018-06-17T02:56:00.524Z,7.50
2018-06-17T02:58:28.239Z,7.03
2018-06-17T03:00:55.997Z,6.03
2018-06-17T03:03:23.754Z,7.93
2018-06-17T03:05:51.547Z,7.10
2018-06-17T03:08:19.319Z,5.97
2018-06-17T03:10:47.584Z,6.83
2018-06-17T03:13:15.324Z,5.80
2018-06-17T03:15:43.116Z,8.23
2018-06-17T03:18:10.890Z,5.87
2018-06-17T03:20:38.632Z,6.47
2018-06-17T03:23:06.363Z,6.23
2018-06-17T03:25:39.743Z,5.27
2018-06-17T03:28:13.012Z,5.87
2018-06-17T03:30:46.401Z,8.10
2018-06-17T03:33:19.753Z,5.50
2018-06-17T03:35:53.142Z,4.90
2018-06-17T03:38:20.869Z,7.03
2018-06-17T03:40:48.620Z,5.03
2018-06-17T03:43:16.331Z,5.27
2018-06-17T03:45:44.052Z,5.50
2018-06-17T03:48:11.698Z,4.70
2018-06-17T03:50:39.437Z,6.03
2018-06-17T03:53:07.169Z,6.13
2018-06-17T03:55:34.894Z,5.50
2018-06-17T03:58:02.671Z,5.33
2018-06-17T04:00:30.435Z,5.63
2018-06-17T04:02:58.677Z,5.50
2018-06-17T04:05:27.797Z,5.10
2018-06-17T04:07:55.835Z,5.80
2018-06-17T04:10:23.598Z,6.03
2018-06-17T04:12:51.536Z,5.57
2018-06-17T04:15:19.320Z,5.60
2018-06-17T04:17:47.080Z,5.80
2018-06-17T04:20:14.840Z,5.43
2018-06-17T04:22:42.633Z,5.77
2018-06-17T04:25:10.345Z,5.60
2018-06-17T04:27:38.068Z,5.50
2018-06-17T04:30:05.851Z,4.93
2018-06-17T04:32:33.584Z,5.60
2018-06-17T04:35:01.395Z,4.30
2018-06-17T04:37:29.236Z,4.43
2018-06-17T04:39:56.992Z,4.50
2018-06-17T04:42:24.744Z,4.47
2018-06-17T04:44:52.523Z,5.13
2018-06-17T04:47:20.255Z,4.50
2018-06-17T04:49:47.851Z,4.80
2018-06-17T04:52:15.585Z,4.17
2018-06-17T04:54:43.339Z,5.67
2018-06-17T04:57:11.082Z,4.43
2018-06-17T04:59:38.847Z,4.50
2018-06-17T05:02:06.637Z,4.70
2018-06-17T05:04:34.480Z,5.37
2018-06-17T05:07:02.832Z,4.50
2018-06-17T05:09:30.588Z,4.50
2018-06-17T05:11:58.312Z,5.33
2018-06-17T05:14:26.102Z,4.70
2018-06-17T05:16:53.839Z,4.20
2018-06-17T05:19:21.603Z,3.93
2018-06-17T05:21:49.376Z,3.30
2018-06-17T05:24:17.139Z,3.50
2018-06-17T05:26:44.911Z,3.47
2018-06-17T05:29:12.648Z,4.27
2018-06-17T05:31:40.295Z,3.70
2018-06-17T05:34:08.047Z,4.00
2018-06-17T05:36:35.833Z,3.97
2018-06-17T05:39:06.115Z,4.07
2018-06-17T05:41:33.846Z,3.70
2018-06-17T05:44:01.616Z,3.90
2018-06-17T05:46:29.380Z,3.73
2018-06-17T05:48:57.148Z,3.77
2018-06-17T05:51:24.860Z,3.80
2018-06-17T05:53:52.626Z,3.80
2018-06-17T05:56:20.424Z,4.77
2018-06-17T05:58:48.151Z,3.70
2018-06-17T06:01:15.871Z,3.73
2018-06-17T06:03:43.660Z,3.93
2018-06-17T06:06:11.443Z,3.80
2018-06-17T06:08:39.255Z,4.30
2018-06-17T06:11:07.000Z,3.93
2018-06-17T06:13:34.744Z,3.80
2018-06-17T06:16:02.469Z,4.53
2018-06-17T06:18:30.223Z,3.97
2018-06-17T06:20:57.932Z,4.10
2018-06-17T06:23:25.744Z,4.67
2018-06-17T06:25:53.540Z,4.17
2018-06-17T06:28:21.271Z,5.20
2018-06-17T06:30:49.016Z,4.80
2018-06-17T06:33:16.631Z,3.90
2018-06-17T06:35:44.404Z,4.40
2018-06-17T06:38:12.153Z,4.00
2018-06-17T06:40:39.925Z,4.57
2018-06-17T06:43:07.895Z,4.90
2018-06-17T06:45:35.678Z,3.63
2018-06-17T06:48:03.427Z,3.67
2018-06-17T06:50:31.156Z,3.57
2018-06-17T06:52:58.986Z,4.80
2018-06-17T06:55:26.707Z,4.20
2018-06-17T06:57:54.536Z,4.00
2018-06-17T07:00:22.171Z,3.60
2018-06-17T07:03:01.487Z,4.27
2018-06-17T07:05:40.780Z,4.20
2018-06-17T07:08:19.784Z,4.33
2018-06-17T07:10:48.361Z,4.17
2018-06-17T07:13:16.100Z,4.20
2018-06-17T07:15:55.335Z,3.47
2018-06-17T07:18:36.833Z,5.07
2018-06-17T07:21:05.109Z,3.30
2018-06-17T07:23:32.859Z,4.57
2018-06-17T07:26:39.563Z,3.33
2018-06-17T07:29:12.903Z,4.03
2018-06-17T07:31:40.676Z,3.03
2018-06-17T07:34:09.139Z,4.30
2018-06-17T07:36:37.453Z,4.53
2018-06-17T07:39:39.163Z,3.77
2018-06-17T07:42:06.771Z,3.70
2018-06-17T07:44:34.505Z,3.13
2018-06-17T07:47:02.542Z,3.83
2018-06-17T07:49:43.896Z,3.50
2018-06-17T07:52:24.333Z,3.00
2018-06-17T07:54:52.064Z,3.77
2018-06-17T07:57:21.118Z,3.40
2018-06-17T07:59:49.497Z,3.30
2018-06-17T08:02:17.549Z,3.17
2018-06-17T08:04:45.390Z,3.03
2018-06-17T08:07:13.120Z,3.23
2018-06-17T08:09:40.872Z,3.07
2018-06-17T08:12:09.524Z,3.30
2018-06-17T08:14:37.310Z,4.40
2018-06-17T08:17:05.252Z,2.97
2018-06-17T08:19:33.008Z,2.90
2018-06-17T08:22:01.176Z,3.47
2018-06-17T08:24:29.387Z,3.00
2018-06-17T08:26:57.184Z,3.23
2018-06-17T08:29:25.328Z,2.90
2018-06-17T08:31:53.140Z,3.70
2018-06-17T08:34:20.820Z,3.47
2018-06-17T08:36:48.620Z,2.77
2018-06-17T08:39:17.676Z,3.90
2018-06-17T08:41:45.496Z,3.30
2018-06-17T08:44:14.134Z,3.60
2018-06-17T08:46:42.604Z,3.00
2018-06-17T08:49:10.680Z,3.90
2018-06-17T08:51:38.300Z,2.93
2018-06-17T08:54:06.078Z,3.17
2018-06-17T08:56:33.828Z,3.60
2018-06-17T08:59:01.605Z,3.40
2018-06-17T09:01:29.919Z,3.03
2018-06-17T09:03:57.756Z,4.27
2018-06-17T09:06:25.501Z,3.13
2018-06-17T09:08:53.836Z,3.70
2018-06-17T09:11:22.015Z,3.00
2018-06-17T09:13:50.065Z,3.03
2018-06-17T09:16:17.703Z,3.97
2018-06-17T09:18:45.497Z,3.60
2018-06-17T09:21:13.364Z,3.40
2018-06-17T09:23:40.980Z,3.03
2018-06-17T09:26:08.769Z,3.30
2018-06-17T09:28:36.507Z,3.00
2018-06-17T09:31:04.336Z,3.90
2018-06-17T09:33:32.068Z,2.70
2018-06-17T09:35:59.659Z,3.20
2018-06-17T09:38:27.400Z,3.70
2018-06-17T09:40:55.026Z,3.60
2018-06-17T09:43:22.807Z,4.00
2018-06-17T09:45:50.675Z,4.60
2018-06-17T09:48:18.416Z,3.90
2018-06-17T09:50:46.168Z,3.30
2018-06-17T09:53:13.867Z,3.07
2018-06-17T09:55:41.633Z,3.40
2018-06-17T09:58:09.383Z,3.17
2018-06-17T10:00:37.151Z,3.17
2018-06-17T10:03:04.975Z,3.27
2018-06-17T10:05:32.795Z,3.20
2018-06-17T10:08:00.416Z,2.93
2018-06-17T10:10:45.961Z,3.37
2018-06-17T10:13:14.131Z,3.73
2018-06-17T10:15:42.845Z,4.30
2018-06-17T10:18:11.147Z,3.43
2018-06-17T10:20:38.881Z,2.97
2018-06-17T10:23:06.773Z,3.70
2018-06-17T10:25:34.811Z,3.40
2018-06-17T10:28:02.921Z,3.10
2018-06-17T10:30:30.661Z,3.70
2018-06-17T10:32:58.534Z,3.50
2018-06-17T10:35:26.278Z,3.13
2018-06-17T10:37:54.063Z,3.30
2018-06-17T10:40:21.785Z,3.20
2018-06-17T10:42:49.575Z,2.73
2018-06-17T10:45:17.396Z,3.90
2018-06-17T10:47:46.129Z,3.07
2018-06-17T10:50:13.872Z,3.00
2018-06-17T10:52:42.287Z,3.50
2018-06-17T10:55:11.263Z,2.90
2018-06-17T10:57:39.135Z,3.07
2018-06-17T11:00:08.229Z,3.40
2018-06-17T11:02:36.232Z,3.00
2018-06-17T11:05:04.468Z,2.83
2018-06-17T11:07:32.299Z,3.33
2018-06-17T11:10:00.083Z,3.73
2018-06-17T11:12:27.689Z,3.20
2018-06-17T11:14:55.481Z,3.50
2018-06-17T11:17:23.195Z,2.77
2018-06-17T11:19:50.912Z,3.47
2018-06-17T11:22:18.668Z,3.17
2018-06-17T11:24:46.392Z,3.60
2018-06-17T11:27:14.104Z,2.53
2018-06-17T11:29:42.040Z,2.80
2018-06-17T11:32:09.858Z,2.97
2018-06-17T11:34:37.487Z,3.33
2018-06-17T11:37:05.314Z,2.80
2018-06-17T11:39:33.048Z,3.27
2018-06-17T11:42:00.700Z,3.40
2018-06-17T11:44:28.434Z,2.83
2018-06-17T11:46:56.511Z,3.40
2018-06-17T11:49:24.243Z,3.43
2018-06-17T11:51:51.964Z,2.80
2018-06-17T11:54:19.731Z,3.17
2018-06-17T11:56:47.361Z,2.53
2018-06-17T11:59:15.179Z,2.67
2018-06-17T12:01:43.128Z,2.80
2018-06-17T12:04:10.743Z,2.97
2018-06-17T12:06:38.552Z,2.77
2018-06-17T12:09:06.803Z,2.50
2018-06-17T12:11:34.525Z,3.13
2018-06-17T12:14:02.361Z,2.67
2018-06-17T12:16:29.988Z,2.30
2018-06-17T12:18:57.744Z,2.63
2018-06-17T12:21:25.476Z,2.50
2018-06-17T12:23:53.199Z,3.07
2018-06-17T12:26:20.972Z,2.33
2018-06-17T12:28:48.992Z,2.47
2018-06-17T12:31:16.751Z,2.47
2018-06-17T12:33:44.497Z,2.60
2018-06-17T12:36:12.272Z,2.33
2018-06-17T12:38:40.075Z,2.60
2018-06-17T12:41:07.812Z,2.40
2018-06-17T12:43:35.788Z,2.57
2018-06-17T12:46:03.833Z,2.33
2018-06-17T12:48:31.471Z,3.40
2018-06-17T12:51:00.495Z,2.13
2018-06-17T12:53:28.303Z,2.27
2018-06-17T12:55:56.029Z,2.40
2018-06-17T12:58:24.607Z,2.60
2018-06-17T13:00:52.692Z,3.07
2018-06-17T13:03:20.420Z,2.93
2018-06-17T13:05:48.099Z,2.27
2018-06-17T13:08:15.876Z,2.30
2018-06-17T13:10:43.643Z,2.10
2018-06-17T13:13:11.341Z,3.53
2018-06-17T13:15:39.308Z,2.50
2018-06-17T13:18:07.075Z,2.07
2018-06-17T13:20:34.801Z,2.70
2018-06-17T13:23:02.516Z,2.20
2018-06-17T13:25:30.297Z,3.70
2018-06-17T13:27:58.156Z,1.80
2018-06-17T13:30:25.920Z,2.57
2018-06-17T13:32:53.639Z,2.60
2018-06-17T13:35:21.448Z,2.60
2018-06-17T13:37:49.703Z,2.27
2018-06-17T13:40:17.403Z,2.50
2018-06-17T13:42:45.035Z,2.30
2018-06-17T13:45:12.797Z,2.20
2018-06-17T13:47:40.611Z,2.40
2018-06-17T13:50:08.218Z,2.20
2018-06-17T13:52:35.963Z,2.57
2018-06-17T13:55:04.021Z,2.43
2018-06-17T13:57:31.844Z,2.00
2018-06-17T13:59:59.584Z,2.40
2018-06-17T14:02:27.383Z,2.50
2018-06-17T14:04:55.137Z,1.97
2018-06-17T14:07:22.907Z,2.30
2018-06-17T14:09:50.715Z,3.27
2018-06-17T14:12:18.646Z,2.10
2018-06-17T14:14:46.282Z,2.70
2018-06-17T14:17:13.997Z,2.93
2018-06-17T14:19:41.716Z,2.10
2018-06-17T14:22:09.476Z,1.97
2018-06-17T14:24:37.239Z,3.03
2018-06-17T14:27:05.096Z,2.47
2018-06-17T14:29:32.863Z,2.13
2018-06-17T14:32:00.560Z,2.20
2018-06-17T14:34:28.336Z,2.40
2018-06-17T14:36:56.116Z,2.80
2018-06-17T14:39:23.756Z,2.60
2018-06-17T14:41:57.067Z,2.50
2018-06-17T14:44:30.240Z,3.00
2018-06-17T14:47:03.540Z,2.33
2018-06-17T14:49:36.718Z,2.33
2018-06-17T14:52:10.950Z,2.70
2018-06-17T14:54:38.562Z,1.90
2018-06-17T14:57:06.519Z,2.13
2018-06-17T14:59:34.232Z,2.67
2018-06-17T15:02:02.004Z,1.50
2018-06-17T15:04:29.895Z,2.13
2018-06-17T15:06:57.643Z,2.57
2018-06-17T15:09:25.435Z,2.43
2018-06-17T15:11:53.158Z,2.13
2018-06-17T15:14:20.937Z,1.87
2018-06-17T15:16:48.526Z,1.97
2018-06-17T15:19:16.311Z,2.53
2018-06-17T15:21:44.094Z,3.17
2018-06-17T15:24:11.847Z,2.07
2018-06-17T15:26:39.599Z,2.23
2018-06-17T15:29:07.319Z,2.13
2018-06-17T15:31:40.718Z,2.30
2018-06-17T15:34:14.161Z,2.63
2018-06-17T15:36:47.428Z,2.17
2018-06-17T15:39:49.443Z,2.87
2018-06-17T15:42:17.464Z,2.57
2018-06-17T15:44:45.184Z,2.67
2018-06-17T15:47:13.015Z,2.43
2018-06-17T15:49:40.799Z,2.60
2018-06-17T15:52:08.959Z,2.27
2018-06-17T15:54:36.695Z,2.30
2018-06-17T15:57:04.732Z,2.10
2018-06-17T15:59:32.430Z,2.30
2018-06-17T16:02:00.219Z,2.40
2018-06-17T16:04:27.970Z,2.73
2018-06-17T16:06:55.805Z,3.30
2018-06-17T16:09:23.623Z,1.83
2018-06-17T16:11:57.013Z,2.30
2018-06-17T16:14:30.512Z,2.13
2018-06-17T16:17:03.931Z,2.57
2018-06-17T16:19:37.069Z,1.80
2018-06-17T16:22:04.812Z,1.60
2018-06-17T16:24:32.511Z,2.83
2018-06-17T16:27:00.244Z,2.17
2018-06-17T16:29:27.901Z,2.17
2018-06-17T16:31:56.344Z,1.90
2018-06-17T16:34:24.107Z,2.20
2018-06-17T16:36:51.825Z,2.07
2018-06-17T16:39:19.439Z,2.63
2018-06-17T16:41:47.152Z,2.33
2018-06-17T16:44:14.899Z,2.47
2018-06-17T16:46:42.583Z,2.40
2018-06-17T16:49:10.208Z,2.40
2018-06-17T16:51:43.355Z,2.73
2018-06-17T16:54:16.674Z,3.20
2018-06-17T16:56:50.139Z,2.10
2018-06-17T16:59:23.572Z,2.33
2018-06-17T17:01:51.420Z,1.70
2018-06-17T17:04:19.372Z,2.40
2018-06-17T17:06:47.217Z,2.23
2018-06-17T17:09:14.862Z,2.07
2018-06-17T17:11:42.611Z,2.50
2018-06-17T17:14:11.342Z,2.90
2018-06-17T17:16:39.368Z,2.80
2018-06-17T17:19:07.091Z,2.90
2018-06-17T17:21:34.819Z,3.00
2018-06-17T17:24:02.684Z,2.37
2018-06-17T17:26:30.420Z,2.30
2018-06-17T17:28:58.154Z,1.83
2018-06-17T17:31:30.424Z,2.23
2018-06-17T17:34:03.679Z,3.20
2018-06-17T17:36:37.144Z,3.17
2018-06-17T17:39:12.278Z,3.00
2018-06-17T17:41:40.048Z,2.50
2018-06-17T17:44:07.776Z,3.10
2018-06-17T17:46:41.064Z,2.87
2018-06-17T17:49:08.778Z,2.80
2018-06-17T17:51:36.529Z,2.40
2018-06-17T17:54:04.841Z,2.60
2018-06-17T17:56:32.480Z,2.63
2018-06-17T17:59:00.318Z,1.70
2018-06-17T18:01:28.023Z,2.50
2018-06-17T18:03:55.757Z,3.50
2018-06-17T18:06:23.496Z,3.30
2018-06-17T18:08:51.225Z,2.63
2018-06-17T18:11:19.044Z,2.40
2018-06-17T18:13:46.756Z,2.47
2018-06-17T18:16:14.460Z,3.30
2018-06-17T18:18:42.224Z,3.60
2018-06-17T18:21:09.987Z,2.00
2018-06-17T18:23:37.747Z,5.17
2018-06-17T18:26:11.133Z,5.30
2018-06-17T18:28:44.381Z,3.87
2018-06-17T18:31:12.095Z,2.73
2018-06-17T18:33:45.323Z,3.00
2018-06-17T18:36:14.423Z,3.80
2018-06-17T18:38:43.394Z,2.70
2018-06-17T18:41:12.188Z,2.20
2018-06-17T18:43:40.136Z,2.20
2018-06-17T18:46:08.544Z,2.57
2018-06-17T18:48:36.256Z,2.07
2018-06-17T18:51:04.017Z,3.73
2018-06-17T18:53:32.260Z,2.87
2018-06-17T18:55:59.991Z,2.20
2018-06-17T18:58:27.712Z,2.30
2018-06-17T19:00:55.446Z,2.10
2018-06-17T19:03:23.136Z,2.53
2018-06-17T19:05:50.926Z,3.77
2018-06-17T19:08:24.169Z,4.10
2018-06-17T19:10:57.484Z,9.80
2018-06-17T19:13:30.860Z,12.33
2018-06-17T19:16:05.017Z,6.13
2018-06-17T19:18:33.035Z,2.67
2018-06-17T19:21:00.757Z,2.77
2018-06-17T19:23:28.627Z,3.40
2018-06-17T19:25:56.368Z,3.53
2018-06-17T19:28:24.107Z,4.60
2018-06-17T19:30:52.252Z,3.13
2018-06-17T19:33:20.102Z,2.30
2018-06-17T19:35:47.882Z,2.77
2018-06-17T19:38:15.648Z,2.60
2018-06-17T19:40:43.615Z,2.60
2018-06-17T19:43:11.427Z,2.47
2018-06-17T19:45:39.273Z,2.47
2018-06-17T19:48:07.070Z,2.70
2018-06-17T19:50:40.340Z,6.87
2018-06-17T19:53:13.552Z,2.73
2018-06-17T19:55:46.768Z,2.50
2018-06-17T19:58:20.213Z,3.03
2018-06-17T20:00:50.461Z,2.70
2018-06-17T20:03:18.209Z,2.90
2018-06-17T20:05:46.041Z,2.10
2018-06-17T20:08:13.800Z,2.97
2018-06-17T20:10:41.569Z,2.30
2018-06-17T20:13:09.354Z,2.40
2018-06-17T20:15:37.185Z,1.90
2018-06-17T20:18:04.992Z,2.33
2018-06-17T20:20:32.797Z,2.57
2018-06-17T20:23:00.604Z,2.73
2018-06-17T20:25:28.362Z,2.67
2018-06-17T20:27:56.816Z,2.40
2018-06-17T20:30:24.552Z,2.40
2018-06-17T20:32:57.940Z,2.70
2018-06-17T20:35:31.431Z,2.90
2018-06-17T20:38:04.814Z,3.40
2018-06-17T20:40:38.228Z,3.07
2018-06-17T20:43:11.535Z,3.50
2018-06-17T20:45:39.389Z,2.67
2018-06-17T20:48:07.159Z,2.33
2018-06-17T20:50:34.933Z,2.40
2018-06-17T20:53:02.736Z,2.73
2018-06-17T20:55:30.520Z,3.07
2018-06-17T20:57:58.342Z,2.50
2018-06-17T21:00:26.053Z,2.87
2018-06-17T21:02:53.876Z,3.10
2018-06-17T21:05:22.029Z,2.30
2018-06-17T21:07:49.800Z,2.83
2018-06-17T21:10:17.580Z,3.30
2018-06-17T21:12:45.366Z,2.57
2018-06-17T21:15:17.959Z,3.03
2018-06-17T21:17:46.976Z,2.70
2018-06-17T21:20:20.283Z,2.40
2018-06-17T21:22:53.873Z,2.40
2018-06-17T21:25:27.158Z,2.90
2018-06-17T21:27:56.861Z,3.43
2018-06-17T21:30:24.668Z,2.97
2018-06-17T21:32:52.419Z,3.33
2018-06-17T21:35:20.187Z,2.50
2018-06-17T21:37:47.992Z,2.73
2018-06-17T21:40:15.782Z,3.27
2018-06-17T21:42:43.571Z,3.10
2018-06-17T21:45:11.675Z,2.60
2018-06-17T21:47:40.089Z,2.53
2018-06-17T21:50:07.868Z,2.97
2018-06-17T21:52:35.635Z,2.73
2018-06-17T21:55:03.540Z,2.77
2018-06-17T21:57:31.283Z,2.57
2018-06-17T21:59:59.095Z,2.97
2018-06-17T22:02:27.159Z,3.07
2018-06-17T22:04:54.964Z,3.00
2018-06-17T22:07:22.753Z,2.67
2018-06-17T22:09:56.158Z,2.47
2018-06-17T22:12:30.444Z,2.30
2018-06-17T22:15:03.983Z,3.00
2018-06-17T22:17:37.726Z,2.40
2018-06-17T22:20:05.571Z,2.47
2018-06-17T22:22:33.621Z,3.00
2018-06-17T22:25:01.450Z,3.30
2018-06-17T22:27:29.239Z,3.13
2018-06-17T22:29:56.981Z,3.20
2018-06-17T22:32:25.830Z,2.67
2018-06-17T22:34:53.788Z,3.57
2018-06-17T22:37:21.539Z,2.80
2018-06-17T22:39:49.507Z,2.90
2018-06-17T22:42:17.976Z,2.67
2018-06-17T22:44:45.825Z,2.87
2018-06-17T22:47:18.111Z,3.23
2018-06-17T22:49:46.075Z,3.00
2018-06-17T22:52:14.017Z,2.80
2018-06-17T22:54:53.839Z,2.40
2018-06-17T22:57:27.756Z,2.73
2018-06-17T23:00:01.190Z,2.50
2018-06-17T23:02:35.239Z,3.13
2018-06-17T23:05:08.848Z,2.27
2018-06-17T23:07:42.406Z,2.30
2018-06-17T23:10:11.128Z,2.60
2018-06-17T23:12:39.268Z,2.83
2018-06-17T23:15:07.280Z,3.03
2018-06-17T23:17:35.028Z,2.67
2018-06-17T23:20:02.892Z,3.17
2018-06-17T23:22:30.684Z,2.97
2018-06-17T23:24:58.480Z,2.73
2018-06-17T23:27:26.262Z,3.57
2018-06-17T23:29:54.025Z,2.80
2018-06-17T23:32:21.764Z,3.60
2018-06-17T23:34:49.463Z,3.00
2018-06-17T23:37:17.215Z,3.10
2018-06-17T23:39:44.955Z,2.93
2018-06-17T23:42:12.731Z,3.23
2018-06-17T23:44:40.479Z,3.47
2018-06-17T23:47:13.771Z,3.20
